createdAt,value
2023-04-15T00:00:13.912Z,94.72
2023-04-15T00:01:19.510Z,94.99
2023-04-15T00:02:21.675Z,94.92
2023-04-15T00:03:23.733Z,95.83
2023-04-15T00:04:25.842Z,97.53
2023-04-15T00:05:27.539Z,97.78
2023-04-15T00:06:29.139Z,99.48
2023-04-15T00:07:31.708Z,100.00
2023-04-15T00:08:33.662Z,99.91
2023-04-15T00:09:35.220Z,99.70
2023-04-15T00:10:36.967Z,100.00
2023-04-15T00:11:38.502Z,100.00
2023-04-15T00:12:40.488Z,100.00
2023-04-15T00:13:42.098Z,99.47
2023-04-15T00:14:43.647Z,98.02
2023-04-15T00:15:45.261Z,96.75
2023-04-15T00:16:46.831Z,96.37
2023-04-15T00:17:52.052Z,96.75
2023-04-15T00:18:53.610Z,96.13
2023-04-15T00:19:55.186Z,95.46
2023-04-15T00:20:56.766Z,95.80
2023-04-15T00:21:58.331Z,95.75
2023-04-15T00:23:00.612Z,95.21
2023-04-15T00:24:02.399Z,95.25
2023-04-15T00:25:04.130Z,95.12
2023-04-15T00:26:05.721Z,94.06
2023-04-15T00:27:07.288Z,93.00
2023-04-15T00:28:09.462Z,94.02
2023-04-15T00:29:11.006Z,94.88
2023-04-15T00:30:13.436Z,95.26
2023-04-15T00:31:15.391Z,94.55
2023-04-15T00:32:16.924Z,94.54
2023-04-15T00:33:18.455Z,93.83
2023-04-15T00:34:20.324Z,93.83
2023-04-15T00:35:21.912Z,94.93
2023-04-15T00:36:23.467Z,95.79
2023-04-15T00:37:25.045Z,95.17
2023-04-15T00:38:26.847Z,94.65
2023-04-15T00:39:28.388Z,93.62
2023-04-15T00:40:29.941Z,92.25
2023-04-15T00:41:31.822Z,91.49
2023-04-15T00:42:35.017Z,90.75
2023-04-15T00:43:36.644Z,90.48
2023-04-15T00:44:38.148Z,90.91
2023-04-15T00:45:39.686Z,91.26
2023-04-15T00:46:43.414Z,92.25
2023-04-15T00:47:45.756Z,92.44
2023-04-15T00:48:47.740Z,92.21
2023-04-15T00:49:49.336Z,92.29
2023-04-15T00:50:50.839Z,92.00
2023-04-15T00:51:52.443Z,92.73
2023-04-15T00:52:53.953Z,93.60
2023-04-15T00:53:55.567Z,93.30
2023-04-15T00:54:57.727Z,94.61
2023-04-15T00:55:59.312Z,95.01
2023-04-15T00:57:02.150Z,95.24
2023-04-15T00:58:03.727Z,95.27
2023-04-15T00:59:08.760Z,95.70
2023-04-15T01:00:11.903Z,96.28
2023-04-15T01:01:13.717Z,95.60
2023-04-15T01:02:15.608Z,95.70
2023-04-15T01:03:17.253Z,96.20
2023-04-15T01:04:19.108Z,96.44
2023-04-15T01:05:20.765Z,98.11
2023-04-15T01:06:22.318Z,98.40
2023-04-15T01:07:24.022Z,99.25
2023-04-15T01:08:29.347Z,99.00
2023-04-15T01:09:30.979Z,99.34
2023-04-15T01:10:33.432Z,100.00
2023-04-15T01:11:35.425Z,100.00
2023-04-15T01:12:37.844Z,100.00
2023-04-15T01:13:40.092Z,100.00
2023-04-15T01:14:41.858Z,100.00
2023-04-15T01:15:44.650Z,99.17
2023-04-15T01:16:46.999Z,99.41
2023-04-15T01:17:48.982Z,98.31
2023-04-15T01:18:50.668Z,98.30
2023-04-15T01:19:52.804Z,97.28
2023-04-15T01:20:54.545Z,97.23
2023-04-15T01:21:56.582Z,97.64
2023-04-15T01:22:58.897Z,97.11
2023-04-15T01:24:01.497Z,97.61
2023-04-15T01:25:10.488Z,97.26
2023-04-15T01:26:12.717Z,97.43
2023-04-15T01:27:14.241Z,97.56
2023-04-15T01:28:16.496Z,97.93
2023-04-15T01:29:18.684Z,98.26
2023-04-15T01:30:20.315Z,98.96
2023-04-15T01:31:22.234Z,99.21
2023-04-15T01:32:24.414Z,99.53
2023-04-15T01:33:26.257Z,99.81
2023-04-15T01:34:30.527Z,100.00
2023-04-15T01:35:32.369Z,100.00
2023-04-15T01:36:34.394Z,100.00
2023-04-15T01:37:36.875Z,99.95
2023-04-15T01:38:38.610Z,99.80
2023-04-15T01:39:40.480Z,99.30
2023-04-15T01:40:42.026Z,99.00
2023-04-15T01:41:44.144Z,99.00
2023-04-15T01:42:45.749Z,98.79
2023-04-15T01:43:47.256Z,98.19
2023-04-15T01:44:48.808Z,97.55
2023-04-15T01:45:50.673Z,97.02
2023-04-15T01:46:52.602Z,96.89
2023-04-15T01:47:54.492Z,96.67
2023-04-15T01:48:56.647Z,95.29
2023-04-15T01:49:58.144Z,96.36
2023-04-15T01:50:59.788Z,97.37
2023-04-15T01:52:01.392Z,98.41
2023-04-15T01:53:02.923Z,100.00
2023-04-15T01:54:04.496Z,100.00
2023-04-15T01:55:08.034Z,100.00
2023-04-15T01:56:09.616Z,100.00
2023-04-15T01:57:11.132Z,100.00
2023-04-15T01:58:12.661Z,100.00
2023-04-15T01:59:14.240Z,100.00
2023-04-15T02:00:16.574Z,100.00
2023-04-15T02:01:19.874Z,100.00
2023-04-15T02:02:21.839Z,100.00
2023-04-15T02:03:25.600Z,100.00
2023-04-15T02:04:28.092Z,99.65
2023-04-15T02:05:29.774Z,98.96
2023-04-15T02:06:31.764Z,98.93
2023-04-15T02:07:33.400Z,97.83
2023-04-15T02:08:35.000Z,98.49
2023-04-15T02:09:36.542Z,98.25
2023-04-15T02:10:38.778Z,98.26
2023-04-15T02:11:40.379Z,98.24
2023-04-15T02:12:42.158Z,99.22
2023-04-15T02:13:43.709Z,98.11
2023-04-15T02:14:45.257Z,97.27
2023-04-15T02:15:50.758Z,96.81
2023-04-15T02:16:52.359Z,96.20
2023-04-15T02:17:55.415Z,94.65
2023-04-15T02:18:57.322Z,94.32
2023-04-15T02:19:59.349Z,93.44
2023-04-15T02:21:00.901Z,92.86
2023-04-15T02:22:02.666Z,92.29
2023-04-15T02:23:07.359Z,92.27
2023-04-15T02:24:09.074Z,92.40
2023-04-15T02:25:11.040Z,92.10
2023-04-15T02:26:13.004Z,92.75
2023-04-15T02:27:18.758Z,92.53
2023-04-15T02:28:20.467Z,93.28
2023-04-15T02:29:23.458Z,93.82
2023-04-15T02:30:25.956Z,94.48
2023-04-15T02:31:27.663Z,96.10
2023-04-15T02:32:29.377Z,97.36
2023-04-15T02:33:32.402Z,97.28
2023-04-15T02:34:33.956Z,97.93
2023-04-15T02:35:36.524Z,97.44
2023-04-15T02:36:39.157Z,97.60
2023-04-15T02:37:43.833Z,97.39
2023-04-15T02:38:45.911Z,96.76
2023-04-15T02:39:47.479Z,96.42
2023-04-15T02:40:50.360Z,97.27
2023-04-15T02:41:52.496Z,97.03
2023-04-15T02:42:54.017Z,97.10
2023-04-15T02:43:55.871Z,96.87
2023-04-15T02:44:58.314Z,96.22
2023-04-15T02:45:59.858Z,96.95
2023-04-15T02:47:01.414Z,97.45
2023-04-15T02:48:06.466Z,97.55
2023-04-15T02:49:08.679Z,99.19
2023-04-15T02:50:12.832Z,100.00
2023-04-15T02:51:20.036Z,100.00
2023-04-15T02:52:21.609Z,100.00
2023-04-15T02:53:23.157Z,100.00
2023-04-15T02:54:25.016Z,100.00
2023-04-15T02:55:26.937Z,100.00
2023-04-15T02:56:28.509Z,100.00
2023-04-15T02:57:30.136Z,100.00
2023-04-15T02:58:31.839Z,100.00
2023-04-15T02:59:33.395Z,100.00
2023-04-15T03:00:34.985Z,100.00
2023-04-15T03:01:36.560Z,100.00
2023-04-15T03:02:39.952Z,100.00
2023-04-15T03:03:41.903Z,100.00
2023-04-15T03:04:43.510Z,100.00
2023-04-15T03:05:44.998Z,100.00
2023-04-15T03:06:46.552Z,100.00
2023-04-15T03:07:48.058Z,100.00
2023-04-15T03:08:49.662Z,100.00
2023-04-15T03:09:51.612Z,100.00
2023-04-15T03:10:53.690Z,100.00
2023-04-15T03:11:55.315Z,100.00
2023-04-15T03:12:56.851Z,100.00
2023-04-15T03:13:58.823Z,100.00
2023-04-15T03:15:02.104Z,100.00
2023-04-15T03:16:03.751Z,100.00
2023-04-15T03:17:05.340Z,100.00
2023-04-15T03:18:06.937Z,98.94
2023-04-15T03:19:08.589Z,97.30
2023-04-15T03:20:10.437Z,97.66
2023-04-15T03:21:11.994Z,96.80
2023-04-15T03:22:13.502Z,96.75
2023-04-15T03:23:15.449Z,96.41
2023-04-15T03:24:17.050Z,96.71
2023-04-15T03:25:18.552Z,96.89
2023-04-15T03:26:30.487Z,96.85
2023-04-15T03:27:32.200Z,96.86
2023-04-15T03:28:34.154Z,97.31
2023-04-15T03:29:35.756Z,98.06
2023-04-15T03:30:37.326Z,98.16
2023-04-15T03:31:38.901Z,97.64
2023-04-15T03:32:40.785Z,98.15
2023-04-15T03:33:42.386Z,97.65
2023-04-15T03:34:44.303Z,97.32
2023-04-15T03:35:45.973Z,97.42
2023-04-15T03:36:47.616Z,98.01
2023-04-15T03:37:49.315Z,98.93
2023-04-15T03:38:51.024Z,98.84
2023-04-15T03:39:52.547Z,99.47
2023-04-15T03:40:54.045Z,100.00
2023-04-15T03:41:56.464Z,100.00
2023-04-15T03:42:58.063Z,100.00
2023-04-15T03:43:59.946Z,100.00
2023-04-15T03:45:01.657Z,100.00
2023-04-15T03:46:03.514Z,100.00
2023-04-15T03:47:05.101Z,100.00
2023-04-15T03:48:17.060Z,100.00
2023-04-15T03:49:19.974Z,100.00
2023-04-15T03:50:21.874Z,100.00
2023-04-15T03:51:23.389Z,99.92
2023-04-15T03:52:25.064Z,99.87
2023-04-15T03:53:26.622Z,98.62
2023-04-15T03:54:28.149Z,96.62
2023-04-15T03:55:29.709Z,95.75
2023-04-15T03:56:31.394Z,95.87
2023-04-15T03:57:37.947Z,96.04
2023-04-15T03:58:39.460Z,95.51
2023-04-15T03:59:41.130Z,95.69
2023-04-15T04:00:42.726Z,95.06
2023-04-15T04:01:44.328Z,94.40
2023-04-15T04:02:46.292Z,94.06
2023-04-15T04:03:48.169Z,93.91
2023-04-15T04:04:49.829Z,94.07
2023-04-15T04:05:51.774Z,93.29
2023-04-15T04:06:53.302Z,93.88
2023-04-15T04:07:54.889Z,93.67
2023-04-15T04:08:56.741Z,93.22
2023-04-15T04:09:58.413Z,93.04
2023-04-15T04:11:00.223Z,93.05
2023-04-15T04:12:02.625Z,92.96
2023-04-15T04:13:04.189Z,92.04
2023-04-15T04:14:05.714Z,92.02
2023-04-15T04:15:08.137Z,91.47
2023-04-15T04:16:09.780Z,91.76
2023-04-15T04:17:11.804Z,91.28
2023-04-15T04:18:13.459Z,90.32
2023-04-15T04:19:15.189Z,90.07
2023-04-15T04:20:16.816Z,90.25
2023-04-15T04:21:18.516Z,91.57
2023-04-15T04:22:24.167Z,92.68
2023-04-15T04:23:25.796Z,93.53
2023-04-15T04:24:27.360Z,94.55
2023-04-15T04:25:29.005Z,96.07
2023-04-15T04:26:30.564Z,98.08
2023-04-15T04:27:32.062Z,100.00
2023-04-15T04:28:33.668Z,100.00
2023-04-15T04:29:35.211Z,100.00
2023-04-15T04:30:36.812Z,100.00
2023-04-15T04:31:38.573Z,100.00
2023-04-15T04:32:40.223Z,100.00
2023-04-15T04:33:41.865Z,100.00
2023-04-15T04:34:43.384Z,100.00
2023-04-15T04:35:44.911Z,100.00
2023-04-15T04:36:46.537Z,100.00
2023-04-15T04:37:48.090Z,100.00
2023-04-15T04:38:49.693Z,100.00
2023-04-15T04:39:51.295Z,100.00
2023-04-15T04:40:52.874Z,100.00
2023-04-15T04:41:54.450Z,100.00
2023-04-15T04:42:56.015Z,100.00
2023-04-15T04:43:57.564Z,100.00
2023-04-15T04:44:59.100Z,100.00
2023-04-15T04:46:00.754Z,100.00
2023-04-15T04:47:02.324Z,100.00
2023-04-15T04:48:07.254Z,100.00
2023-04-15T04:49:08.888Z,100.00
2023-04-15T04:50:10.640Z,100.00
2023-04-15T04:51:12.197Z,100.00
2023-04-15T04:52:13.729Z,100.00
2023-04-15T04:53:15.459Z,100.00
2023-04-15T04:54:17.648Z,100.00
2023-04-15T04:55:19.384Z,100.00
2023-04-15T04:56:21.378Z,100.00
2023-04-15T04:57:23.010Z,100.00
2023-04-15T04:58:24.589Z,100.00
2023-04-15T04:59:26.502Z,100.00
2023-04-15T05:00:28.182Z,100.00
2023-04-15T05:01:29.867Z,100.00
2023-04-15T05:02:32.527Z,100.00
2023-04-15T05:03:34.364Z,100.00
2023-04-15T05:04:37.162Z,100.00
2023-04-15T05:05:41.138Z,100.00
2023-04-15T05:06:42.662Z,100.00
2023-04-15T05:07:45.002Z,100.00
2023-04-15T05:08:47.137Z,100.00
2023-04-15T05:09:48.682Z,100.00
2023-04-15T05:10:50.471Z,100.00
2023-04-15T05:11:51.976Z,100.00
2023-04-15T05:12:53.546Z,100.00
2023-04-15T05:13:55.408Z,100.00
2023-04-15T05:14:56.917Z,100.00
2023-04-15T05:15:58.587Z,100.00
2023-04-15T05:17:00.193Z,99.95
2023-04-15T05:18:01.815Z,98.75
2023-04-15T05:19:03.580Z,98.20
2023-04-15T05:20:05.640Z,97.78
2023-04-15T05:21:07.758Z,97.84
2023-04-15T05:22:09.390Z,96.64
2023-04-15T05:23:11.014Z,95.57
2023-04-15T05:24:12.592Z,96.30
2023-04-15T05:25:14.149Z,95.34
2023-04-15T05:26:15.759Z,94.81
2023-04-15T05:27:17.314Z,94.09
2023-04-15T05:28:18.877Z,94.87
2023-04-15T05:29:20.885Z,93.71
2023-04-15T05:30:22.400Z,93.97
2023-04-15T05:31:23.984Z,92.08
2023-04-15T05:32:25.659Z,92.31
2023-04-15T05:33:27.629Z,91.80
2023-04-15T05:34:29.258Z,89.26
2023-04-15T05:35:30.832Z,90.09
2023-04-15T05:36:32.448Z,90.82
2023-04-15T05:37:34.100Z,93.12
2023-04-15T05:38:35.931Z,93.89
2023-04-15T05:39:37.497Z,94.34
2023-04-15T05:40:38.983Z,94.11
2023-04-15T05:41:40.594Z,93.20
2023-04-15T05:42:42.104Z,91.58
2023-04-15T05:43:43.643Z,91.45
2023-04-15T05:44:45.221Z,90.40
2023-04-15T05:45:46.820Z,91.06
2023-04-15T05:46:48.393Z,90.31
2023-04-15T05:47:51.036Z,89.24
2023-04-15T05:48:54.667Z,90.60
2023-04-15T05:49:58.932Z,91.47
2023-04-15T05:51:01.309Z,91.20
2023-04-15T05:52:03.312Z,90.18
2023-04-15T05:53:04.942Z,91.84
2023-04-15T05:54:06.878Z,91.88
2023-04-15T05:55:08.871Z,93.55
2023-04-15T05:56:10.665Z,93.06
2023-04-15T05:57:12.196Z,92.82
2023-04-15T05:58:13.708Z,91.95
2023-04-15T05:59:15.392Z,92.18
2023-04-15T06:00:17.042Z,92.11
2023-04-15T06:01:18.726Z,91.20
2023-04-15T06:02:20.557Z,90.68
2023-04-15T06:03:23.176Z,88.64
2023-04-15T06:04:24.940Z,90.65
2023-04-15T06:05:26.617Z,90.84
2023-04-15T06:06:28.613Z,90.33
2023-04-15T06:07:30.176Z,91.41
2023-04-15T06:08:31.760Z,91.71
2023-04-15T06:09:33.906Z,92.45
2023-04-15T06:10:36.829Z,93.12
2023-04-15T06:11:38.514Z,95.60
2023-04-15T06:12:40.191Z,96.48
2023-04-15T06:13:41.742Z,97.17
2023-04-15T06:14:43.378Z,95.87
2023-04-15T06:15:44.955Z,96.13
2023-04-15T06:16:47.055Z,94.57
2023-04-15T06:17:48.693Z,93.16
2023-04-15T06:18:50.419Z,92.92
2023-04-15T06:19:55.696Z,91.66
2023-04-15T06:20:57.548Z,91.65
2023-04-15T06:21:59.377Z,91.19
2023-04-15T06:23:01.150Z,92.22
2023-04-15T06:24:02.852Z,91.73
2023-04-15T06:25:05.217Z,89.23
2023-04-15T06:26:07.060Z,89.13
2023-04-15T06:27:08.600Z,88.62
2023-04-15T06:28:10.344Z,88.17
2023-04-15T06:29:11.918Z,86.04
2023-04-15T06:30:13.553Z,85.91
2023-04-15T06:31:15.295Z,85.67
2023-04-15T06:32:16.893Z,85.66
2023-04-15T06:33:18.438Z,85.03
2023-04-15T06:34:20.081Z,85.15
2023-04-15T06:35:22.199Z,83.84
2023-04-15T06:36:23.719Z,82.03
2023-04-15T06:37:25.382Z,82.05
2023-04-15T06:38:26.911Z,80.64
2023-04-15T06:39:28.469Z,79.25
2023-04-15T06:40:30.037Z,79.02
2023-04-15T06:41:31.786Z,77.44
2023-04-15T06:42:34.064Z,76.87
2023-04-15T06:43:35.713Z,75.82
2023-04-15T06:44:37.329Z,75.38
2023-04-15T06:45:39.537Z,75.45
2023-04-15T06:46:41.399Z,74.61
2023-04-15T06:47:43.634Z,75.05
2023-04-15T06:48:45.687Z,75.61
2023-04-15T06:49:47.230Z,75.02
2023-04-15T06:50:52.577Z,75.38
2023-04-15T06:51:54.172Z,76.90
2023-04-15T06:52:56.277Z,76.97
2023-04-15T06:53:57.935Z,74.08
2023-04-15T06:54:59.825Z,73.93
2023-04-15T06:56:01.407Z,73.03
2023-04-15T06:57:03.025Z,74.60
2023-04-15T06:58:04.628Z,72.99
2023-04-15T06:59:06.659Z,72.18
2023-04-15T07:00:08.730Z,72.56
2023-04-15T07:01:10.461Z,71.87
2023-04-15T07:02:14.046Z,71.60
2023-04-15T07:03:15.656Z,71.28
2023-04-15T07:04:17.248Z,71.01
2023-04-15T07:05:19.106Z,72.08
2023-04-15T07:06:21.971Z,71.52
2023-04-15T07:07:23.447Z,71.60
2023-04-15T07:08:25.668Z,70.64
2023-04-15T07:09:27.346Z,70.31
2023-04-15T07:10:28.967Z,69.33
2023-04-15T07:11:30.565Z,68.97
2023-04-15T07:12:32.185Z,69.08
2023-04-15T07:13:34.566Z,69.31
2023-04-15T07:14:36.574Z,69.26
2023-04-15T07:15:38.187Z,68.07
2023-04-15T07:16:39.811Z,70.34
2023-04-15T07:17:43.283Z,70.01
2023-04-15T07:18:44.987Z,71.70
2023-04-15T07:19:46.518Z,70.68
2023-04-15T07:20:48.816Z,71.97
2023-04-15T07:21:50.494Z,69.92
2023-04-15T07:22:52.054Z,72.38
2023-04-15T07:23:53.615Z,71.16
2023-04-15T07:24:55.146Z,71.05
2023-04-15T07:25:57.458Z,70.89
2023-04-15T07:27:00.860Z,71.05
2023-04-15T07:28:03.023Z,73.75
2023-04-15T07:29:04.580Z,73.53
2023-04-15T07:30:06.970Z,71.98
2023-04-15T07:31:09.064Z,70.95
2023-04-15T07:32:10.883Z,72.15
2023-04-15T07:33:12.693Z,72.38
2023-04-15T07:34:14.655Z,72.92
2023-04-15T07:35:16.321Z,69.77
2023-04-15T07:36:17.825Z,71.73
2023-04-15T07:37:19.923Z,73.43
2023-04-15T07:38:22.206Z,73.17
2023-04-15T07:39:23.757Z,73.67
2023-04-15T07:40:25.427Z,74.89
2023-04-15T07:41:27.579Z,71.72
2023-04-15T07:42:29.418Z,71.31
2023-04-15T07:43:30.999Z,71.15
2023-04-15T07:44:32.591Z,69.91
2023-04-15T07:45:34.339Z,70.47
2023-04-15T07:46:37.309Z,69.42
2023-04-15T07:47:38.945Z,69.33
2023-04-15T07:48:40.798Z,69.33
2023-04-15T07:49:43.447Z,70.07
2023-04-15T07:50:45.002Z,69.00
2023-04-15T07:51:46.579Z,70.10
2023-04-15T07:52:49.140Z,69.36
2023-04-15T07:53:50.762Z,72.07
2023-04-15T07:54:52.293Z,67.84
2023-04-15T07:55:53.781Z,67.30
2023-04-15T07:56:56.492Z,68.04
2023-04-15T07:57:58.057Z,68.31
2023-04-15T07:59:02.315Z,66.80
2023-04-15T08:00:07.601Z,66.53
2023-04-15T08:01:09.188Z,71.06
2023-04-15T08:02:11.810Z,67.47
2023-04-15T08:03:13.719Z,66.75
2023-04-15T08:04:15.819Z,63.73
2023-04-15T08:05:17.507Z,64.90
2023-04-15T08:06:19.553Z,66.16
2023-04-15T08:07:21.444Z,65.83
2023-04-15T08:08:23.172Z,66.84
2023-04-15T08:09:24.760Z,58.82
2023-04-15T08:10:26.264Z,59.00
2023-04-15T08:11:27.904Z,57.25
2023-04-15T08:12:29.527Z,59.02
2023-04-15T08:13:31.102Z,61.25
2023-04-15T08:14:32.727Z,61.06
2023-04-15T08:15:34.357Z,60.48
2023-04-15T08:16:36.101Z,59.71
2023-04-15T08:17:37.715Z,56.64
2023-04-15T08:18:39.293Z,52.34
2023-04-15T08:19:41.368Z,52.09
2023-04-15T08:20:43.265Z,52.42
2023-04-15T08:21:44.824Z,56.80
2023-04-15T08:22:47.936Z,52.68
2023-04-15T08:23:51.144Z,52.89
2023-04-15T08:24:52.679Z,52.18
2023-04-15T08:25:54.187Z,49.93
2023-04-15T08:26:56.697Z,50.40
2023-04-15T08:27:58.295Z,49.77
2023-04-15T08:29:00.111Z,50.88
2023-04-15T08:30:04.639Z,53.81
2023-04-15T08:31:06.836Z,49.12
2023-04-15T08:32:09.607Z,53.19
2023-04-15T08:33:11.157Z,52.87
2023-04-15T08:34:13.233Z,53.60
2023-04-15T08:35:15.476Z,48.05
2023-04-15T08:36:17.648Z,43.26
2023-04-15T08:37:19.172Z,44.26
2023-04-15T08:38:20.738Z,46.34
2023-04-15T08:39:22.293Z,46.75
2023-04-15T08:40:30.753Z,46.95
2023-04-15T08:41:45.453Z,44.35
2023-04-15T08:42:53.026Z,46.31
2023-04-15T08:43:58.995Z,44.39
2023-04-15T08:45:01.895Z,45.23
2023-04-15T08:46:05.228Z,43.43
2023-04-15T08:47:08.697Z,43.98
2023-04-15T08:48:16.639Z,46.13
2023-04-15T08:49:21.547Z,43.27
2023-04-15T08:50:25.374Z,42.65
2023-04-15T08:51:27.231Z,47.10
2023-04-15T08:52:31.597Z,46.39
2023-04-15T08:53:33.786Z,42.94
2023-04-15T08:54:36.568Z,41.44
2023-04-15T08:55:45.925Z,41.27
2023-04-15T08:56:48.842Z,44.28
2023-04-15T08:57:51.303Z,40.19
2023-04-15T08:58:53.370Z,43.79
2023-04-15T08:59:58.448Z,42.67
2023-04-15T09:01:00.131Z,40.09
2023-04-15T09:02:02.785Z,41.74
2023-04-15T09:03:08.915Z,45.90
2023-04-15T09:04:12.538Z,43.96
2023-04-15T09:05:14.450Z,44.72
2023-04-15T09:06:17.672Z,42.13
2023-04-15T09:07:19.311Z,39.53
2023-04-15T09:08:21.025Z,39.61
2023-04-15T09:09:22.846Z,39.97
2023-04-15T09:10:24.510Z,45.04
2023-04-15T09:11:26.157Z,45.15
2023-04-15T09:12:27.669Z,42.31
2023-04-15T09:13:29.863Z,44.36
2023-04-15T09:14:34.006Z,40.61
2023-04-15T09:15:38.532Z,37.93
2023-04-15T09:17:02.925Z,38.83
2023-04-15T09:18:05.850Z,39.29
2023-04-15T09:19:24.476Z,44.42
2023-04-15T09:20:26.392Z,42.03
2023-04-15T09:21:29.545Z,38.51
2023-04-15T09:22:34.299Z,38.09
2023-04-15T09:23:36.926Z,39.31
2023-04-15T09:24:40.973Z,42.40
2023-04-15T09:25:42.659Z,40.80
2023-04-15T09:26:44.250Z,39.43
2023-04-15T09:27:49.916Z,39.41
2023-04-15T09:28:51.449Z,36.59
2023-04-15T09:29:54.195Z,38.48
2023-04-15T09:30:59.926Z,37.70
2023-04-15T09:32:11.722Z,38.05
2023-04-15T09:33:14.965Z,38.43
2023-04-15T09:34:16.606Z,41.02
2023-04-15T09:35:18.975Z,41.43
2023-04-15T09:36:20.545Z,39.84
2023-04-15T09:37:35.681Z,39.22
2023-04-15T09:38:55.254Z,39.49
2023-04-15T09:39:56.864Z,38.12
2023-04-15T09:40:59.354Z,39.14
2023-04-15T09:42:07.694Z,39.59
2023-04-15T09:43:13.051Z,38.71
2023-04-15T09:44:25.303Z,39.30
2023-04-15T09:45:29.500Z,39.21
2023-04-15T09:46:45.097Z,39.10
2023-04-15T09:47:46.633Z,42.02
2023-04-15T09:49:07.749Z,38.53
2023-04-15T09:50:09.707Z,38.17
2023-04-15T09:51:11.285Z,38.44
2023-04-15T09:52:14.051Z,39.55
2023-04-15T09:53:20.560Z,40.54
2023-04-15T09:54:22.436Z,38.06
2023-04-15T09:55:23.996Z,39.42
2023-04-15T09:56:34.828Z,38.86
2023-04-15T09:57:38.106Z,40.95
2023-04-15T09:58:41.654Z,41.20
2023-04-15T09:59:43.201Z,39.06
2023-04-15T10:00:47.091Z,37.75
2023-04-15T10:01:49.163Z,37.57
2023-04-15T10:02:52.016Z,37.43
2023-04-15T10:03:57.004Z,39.59
2023-04-15T10:04:59.702Z,36.87
2023-04-15T10:06:02.200Z,38.82
2023-04-15T10:07:05.517Z,38.14
2023-04-15T10:08:07.813Z,38.31
2023-04-15T10:09:09.639Z,38.10
2023-04-15T10:10:12.926Z,37.72
2023-04-15T10:11:14.550Z,37.02
2023-04-15T10:12:18.190Z,36.60
2023-04-15T10:13:22.484Z,37.65
2023-04-15T10:14:26.952Z,37.24
2023-04-15T10:15:29.874Z,38.26
2023-04-15T10:16:33.081Z,38.33
2023-04-15T10:17:37.247Z,37.07
2023-04-15T10:18:43.104Z,37.74
2023-04-15T10:19:45.749Z,38.68
2023-04-15T10:20:49.012Z,38.25
2023-04-15T10:21:51.557Z,38.02
2023-04-15T10:22:53.693Z,39.20
2023-04-15T10:23:55.564Z,37.63
2023-04-15T10:24:57.758Z,37.29
2023-04-15T10:26:00.116Z,38.61
2023-04-15T10:27:04.418Z,37.85
2023-04-15T10:28:08.393Z,37.77
2023-04-15T10:29:10.928Z,36.37
2023-04-15T10:30:12.945Z,36.51
2023-04-15T10:31:15.092Z,36.80
2023-04-15T10:32:20.178Z,37.79
2023-04-15T10:33:24.551Z,37.07
2023-04-15T10:34:27.089Z,39.38
2023-04-15T10:35:30.735Z,38.66
2023-04-15T10:36:33.415Z,36.67
2023-04-15T10:37:39.042Z,37.01
2023-04-15T10:38:43.234Z,37.93
2023-04-15T10:39:45.209Z,38.49
2023-04-15T10:40:47.023Z,38.97
2023-04-15T10:42:07.387Z,42.25
2023-04-15T10:43:25.589Z,38.45
2023-04-15T10:44:27.142Z,40.50
2023-04-15T10:45:33.165Z,41.23
2023-04-15T10:46:47.492Z,40.03
2023-04-15T10:47:55.699Z,39.95
2023-04-15T10:48:57.726Z,38.53
2023-04-15T10:50:01.418Z,37.99
2023-04-15T10:51:05.107Z,38.43
2023-04-15T10:52:08.694Z,38.64
2023-04-15T10:53:11.143Z,39.77
2023-04-15T10:54:24.689Z,39.52
2023-04-15T10:55:31.388Z,36.02
2023-04-15T10:56:33.026Z,37.00
2023-04-15T10:57:37.714Z,36.20
2023-04-15T10:58:43.362Z,36.18
2023-04-15T11:00:00.071Z,36.99
2023-04-15T11:01:03.480Z,37.42
2023-04-15T11:02:07.362Z,39.66
2023-04-15T11:03:10.365Z,39.09
2023-04-15T11:04:12.196Z,38.50
2023-04-15T11:05:16.166Z,36.46
2023-04-15T11:06:17.814Z,36.49
2023-04-15T11:07:39.385Z,37.16
2023-04-15T11:08:59.296Z,37.60
2023-04-15T11:10:01.833Z,37.31
2023-04-15T11:11:03.455Z,37.60
2023-04-15T11:12:09.795Z,38.16
2023-04-15T11:13:11.423Z,37.97
2023-04-15T11:14:16.400Z,35.60
2023-04-15T11:15:37.974Z,36.98
2023-04-15T11:16:45.028Z,36.50
2023-04-15T11:17:46.774Z,35.11
2023-04-15T11:18:57.442Z,35.47
2023-04-15T11:19:59.000Z,36.06
2023-04-15T11:21:03.525Z,35.92
2023-04-15T11:22:11.912Z,36.36
2023-04-15T11:23:15.851Z,35.50
2023-04-15T11:24:27.216Z,35.03
2023-04-15T11:25:31.088Z,35.49
2023-04-15T11:26:32.889Z,36.28
2023-04-15T11:27:34.436Z,35.70
2023-04-15T11:28:38.301Z,36.83
2023-04-15T11:29:40.781Z,35.21
2023-04-15T11:30:42.793Z,35.99
2023-04-15T11:31:49.609Z,35.60
2023-04-15T11:32:52.483Z,35.49
2023-04-15T11:34:01.679Z,36.13
2023-04-15T11:35:03.443Z,37.59
2023-04-15T11:36:05.351Z,37.98
2023-04-15T11:37:07.920Z,36.09
2023-04-15T11:38:15.403Z,37.66
2023-04-15T11:39:16.984Z,37.73
2023-04-15T11:40:29.632Z,37.19
2023-04-15T11:41:31.250Z,37.21
2023-04-15T11:42:46.467Z,37.23
2023-04-15T11:43:51.639Z,36.13
2023-04-15T11:45:07.552Z,35.86
2023-04-15T11:46:09.181Z,36.92
2023-04-15T11:47:26.243Z,35.16
2023-04-15T11:48:30.727Z,37.04
2023-04-15T11:49:34.027Z,36.21
2023-04-15T11:50:36.876Z,36.68
2023-04-15T11:51:38.596Z,36.61
2023-04-15T11:52:40.800Z,34.67
2023-04-15T11:53:46.529Z,33.95
2023-04-15T11:54:48.360Z,34.15
2023-04-15T11:55:52.795Z,33.75
2023-04-15T11:56:54.660Z,32.36
2023-04-15T11:58:25.310Z,33.89
2023-04-15T11:59:35.658Z,33.96
2023-04-15T12:00:54.194Z,36.29
2023-04-15T12:01:56.360Z,36.75
2023-04-15T12:03:21.911Z,34.69
2023-04-15T12:04:25.368Z,36.99
2023-04-15T12:05:27.308Z,36.64
2023-04-15T12:06:39.093Z,35.87
2023-04-15T12:08:02.950Z,35.08
2023-04-15T12:09:08.720Z,34.62
2023-04-15T12:10:10.662Z,35.29
2023-04-15T12:11:12.226Z,36.81
2023-04-15T12:12:13.825Z,37.06
2023-04-15T12:13:15.400Z,37.00
2023-04-15T12:14:32.924Z,37.67
2023-04-15T12:15:39.336Z,37.68
2023-04-15T12:17:05.015Z,37.32
2023-04-15T12:18:06.636Z,35.35
2023-04-15T12:19:13.583Z,37.05
2023-04-15T12:20:21.527Z,36.92
2023-04-15T12:21:24.691Z,37.45
2023-04-15T12:22:26.198Z,37.04
2023-04-15T12:23:27.799Z,37.48
2023-04-15T12:24:32.278Z,36.53
2023-04-15T12:25:36.901Z,36.37
2023-04-15T12:26:47.872Z,38.93
2023-04-15T12:27:53.388Z,39.63
2023-04-15T12:29:01.820Z,37.11
2023-04-15T12:30:05.041Z,37.63
2023-04-15T12:31:15.668Z,38.02
2023-04-15T12:32:21.069Z,37.98
2023-04-15T12:33:22.780Z,38.13
2023-04-15T12:34:32.690Z,39.82
2023-04-15T12:35:34.333Z,38.96
2023-04-15T12:36:38.439Z,37.66
2023-04-15T12:37:39.985Z,37.93
2023-04-15T12:38:41.921Z,37.76
2023-04-15T12:39:45.291Z,37.84
2023-04-15T12:40:47.355Z,39.86
2023-04-15T12:41:48.970Z,38.91
2023-04-15T12:42:50.512Z,37.75
2023-04-15T12:43:52.183Z,37.99
2023-04-15T12:44:53.735Z,37.61
2023-04-15T12:45:55.558Z,40.21
2023-04-15T12:46:57.637Z,39.01
2023-04-15T12:47:59.387Z,39.15
2023-04-15T12:49:01.422Z,39.99
2023-04-15T12:50:03.253Z,41.25
2023-04-15T12:51:05.811Z,39.32
2023-04-15T12:52:07.703Z,41.44
2023-04-15T12:53:09.455Z,39.34
2023-04-15T12:54:11.207Z,39.61
2023-04-15T12:55:12.962Z,39.75
2023-04-15T12:56:14.703Z,38.33
2023-04-15T12:57:16.223Z,37.91
2023-04-15T12:58:17.918Z,38.49
2023-04-15T12:59:19.606Z,37.52
2023-04-15T13:00:21.224Z,36.60
2023-04-15T13:01:23.223Z,37.65
2023-04-15T13:02:25.775Z,37.19
2023-04-15T13:03:27.681Z,37.80
2023-04-15T13:04:31.346Z,37.49
2023-04-15T13:05:33.266Z,38.45
2023-04-15T13:06:34.854Z,39.19
2023-04-15T13:07:36.439Z,39.48
2023-04-15T13:08:42.575Z,38.88
2023-04-15T13:09:46.843Z,38.82
2023-04-15T13:10:48.455Z,36.42
2023-04-15T13:11:50.157Z,37.18
2023-04-15T13:12:53.702Z,37.26
2023-04-15T13:13:56.963Z,37.45
2023-04-15T13:14:58.549Z,36.94
2023-04-15T13:16:00.173Z,39.33
2023-04-15T13:17:02.857Z,38.13
2023-04-15T13:18:07.345Z,37.12
2023-04-15T13:19:08.910Z,37.21
2023-04-15T13:20:10.804Z,39.17
2023-04-15T13:21:12.875Z,37.83
2023-04-15T13:22:15.261Z,36.92
2023-04-15T13:23:17.077Z,37.84
2023-04-15T13:24:18.635Z,36.53
2023-04-15T13:25:20.368Z,37.09
2023-04-15T13:26:22.325Z,36.53
2023-04-15T13:27:24.004Z,37.69
2023-04-15T13:28:25.577Z,36.52